TimePDT,TemperatureF,Dew PointF,Humidity,Sea Level PressureIn,VisibilityMPH,Wind Direction,Wind SpeedMPH,Gust SpeedMPH,PrecipitationIn,Events,Conditions,WindDirDegrees,DateUTC
12:56 AM,53.1,51.1,93,30.15,10.0,Calm,Calm,-,N/A,,Overcast,0,2013-07-31 07:56:00
1:05 AM,53.6,51.8,94,30.15,10.0,Calm,Calm,-,N/A,,Overcast,0,2013-07-31 08:05:00
1:56 AM,53.1,51.1,93,30.14,10.0,Calm,Calm,-,N/A,,Overcast,0,2013-07-31 08:56:00
2:52 AM,53.6,51.8,94,30.13,9.0,Calm,Calm,-,N/A,,Overcast,0,2013-07-31 09:52:00
2:56 AM,53.1,52.0,96,30.14,10.0,Calm,Calm,-,N/A,,Overcast,0,2013-07-31 09:56:00
3:06 AM,53.6,51.8,94,30.13,9.0,West,4.6,-,N/A,,Overcast,280,2013-07-31 10:06:00
3:21 AM,53.6,51.8,94,30.14,9.0,Calm,Calm,-,N/A,,Overcast,0,2013-07-31 10:21:00
3:56 AM,53.1,51.1,93,30.14,10.0,SSW,3.5,-,N/A,,Overcast,210,2013-07-31 10:56:00
4:05 AM,53.6,51.8,94,30.14,10.0,South,3.5,-,N/A,,Overcast,190,2013-07-31 11:05:00
4:51 AM,53.6,51.8,94,30.14,10.0,SSW,4.6,-,N/A,,Overcast,210,2013-07-31 11:51:00
4:56 AM,53.1,51.1,93,30.14,10.0,SSW,3.5,-,N/A,,Overcast,210,2013-07-31 11:56:00
5:56 AM,53.1,51.1,93,30.13,10.0,Calm,Calm,-,N/A,,Overcast,0,2013-07-31 12:56:00
6:56 AM,53.1,51.1,93,30.13,10.0,South,5.8,-,N/A,,Overcast,190,2013-07-31 13:56:00
7:43 AM,53.6,51.8,94,30.13,10.0,South,4.6,-,N/A,,Overcast,170,2013-07-31 14:43:00
7:56 AM,54.0,51.1,90,30.14,10.0,SSE,5.8,-,N/A,,Overcast,160,2013-07-31 14:56:00
8:33 AM,53.6,51.8,94,30.14,10.0,South,4.6,-,N/A,,Overcast,170,2013-07-31 15:33:00
8:56 AM,54.0,51.1,90,30.14,10.0,South,5.8,-,N/A,,Overcast,180,2013-07-31 15:56:00
9:56 AM,55.9,51.1,84,30.15,10.0,South,9.2,-,N/A,,Overcast,180,2013-07-31 16:56:00
10:56 AM,55.0,51.1,86,30.15,10.0,SSW,8.1,-,N/A,,Overcast,200,2013-07-31 17:56:00
11:32 AM,55.4,51.8,88,30.15,10.0,SSW,4.6,-,N/A,,Overcast,200,2013-07-31 18:32:00
11:56 AM,55.9,51.1,84,30.16,10.0,South,8.1,-,N/A,,Overcast,170,2013-07-31 18:56:00
12:56 PM,57.0,52.0,83,30.17,10.0,South,8.1,-,N/A,,Overcast,180,2013-07-31 19:56:00
1:56 PM,57.0,52.0,83,30.17,10.0,South,6.9,-,N/A,,Overcast,170,2013-07-31 20:56:00
2:56 PM,55.9,52.0,87,30.17,10.0,SSW,5.8,-,N/A,,Overcast,200,2013-07-31 21:56:00
3:56 PM,57.0,52.0,83,30.17,10.0,South,5.8,-,N/A,,Overcast,190,2013-07-31 22:56:00
4:56 PM,57.9,52.0,81,30.16,10.0,South,4.6,-,N/A,,Overcast,190,2013-07-31 23:56:00
5:56 PM,55.9,52.0,87,30.15,10.0,Calm,Calm,-,N/A,,Overcast,0,2013-08-01 00:56:00
6:56 PM,57.0,53.1,87,30.14,10.0,Calm,Calm,-,N/A,,Overcast,0,2013-08-01 01:56:00
7:56 PM,57.9,53.1,84,30.14,10.0,Calm,Calm,-,N/A,,Overcast,0,2013-08-01 02:56:00
8:56 PM,55.9,53.1,90,30.14,10.0,Calm,Calm,-,N/A,,Overcast,0,2013-08-01 03:56:00
9:56 PM,55.9,53.1,90,30.15,10.0,Calm,Calm,-,N/A,,Overcast,0,2013-08-01 04:56:00
10:56 PM,55.0,53.1,93,30.14,10.0,Calm,Calm,-,N/A,,Overcast,0,2013-08-01 05:56:00
11:56 PM,55.0,53.1,93,30.13,10.0,Calm,Calm,-,N/A,,Overcast,0,2013-08-01 06:56:00